createdAt,value
2019-01-31T00:01:41.914Z,83.80
2019-01-31T00:04:17.011Z,83.60
2019-01-31T00:06:11.218Z,83.50
2019-01-31T00:08:10.894Z,83.40
2019-01-31T00:09:57.347Z,83.20
2019-01-31T00:11:51.092Z,83.50
2019-01-31T00:13:41.468Z,83.60
2019-01-31T00:15:28.042Z,83.50
2019-01-31T00:17:25.622Z,83.50
2019-01-31T00:19:06.417Z,83.40
2019-01-31T00:21:17.124Z,83.40
2019-01-31T00:23:32.597Z,83.50
2019-01-31T00:25:39.196Z,83.60
2019-01-31T00:27:35.664Z,83.60
2019-01-31T00:29:51.280Z,83.60
2019-01-31T00:32:03.846Z,83.60
2019-01-31T00:33:45.596Z,83.60
2019-01-31T00:36:02.426Z,83.70
2019-01-31T00:37:56.622Z,83.80
2019-01-31T00:39:55.484Z,83.90
2019-01-31T00:42:18.754Z,83.90
2019-01-31T00:44:12.898Z,84.10
2019-01-31T00:46:32.422Z,83.90
2019-01-31T00:48:51.068Z,84.20
2019-01-31T00:50:47.943Z,84.40
2019-01-31T00:52:53.675Z,84.40
2019-01-31T00:55:19.924Z,85.00
2019-01-31T00:57:05.274Z,84.20
2019-01-31T00:58:53.865Z,84.20
2019-01-31T01:01:11.925Z,84.20
2019-01-31T01:03:20.064Z,85.00
2019-01-31T01:05:18.661Z,84.30
2019-01-31T01:07:31.574Z,84.70
2019-01-31T01:09:55.380Z,85.10
2019-01-31T01:11:50.871Z,85.00
2019-01-31T01:13:53.428Z,84.50
2019-01-31T01:15:52.026Z,84.20
2019-01-31T01:17:44.963Z,84.10
2019-01-31T01:20:01.176Z,84.20
2019-01-31T01:22:05.010Z,84.20
2019-01-31T01:24:07.176Z,84.20
2019-01-31T01:26:16.458Z,84.10
2019-01-31T01:28:36.382Z,83.90
2019-01-31T01:30:46.515Z,84.40
2019-01-31T01:32:55.671Z,84.80
2019-01-31T01:35:01.303Z,84.60
2019-01-31T01:36:46.528Z,84.70
2019-01-31T01:38:55.224Z,84.70
2019-01-31T01:40:54.866Z,84.50
2019-01-31T01:42:55.988Z,84.40
2019-01-31T01:45:06.416Z,84.50
2019-01-31T01:47:15.170Z,84.60
2019-01-31T01:49:00.645Z,84.50
2019-01-31T01:51:18.031Z,84.30
2019-01-31T01:53:43.740Z,84.30
2019-01-31T01:55:34.560Z,84.50
2019-01-31T01:57:48.291Z,84.80
2019-01-31T02:00:07.335Z,85.00
2019-01-31T02:02:15.592Z,85.00
2019-01-31T02:04:34.050Z,85.00
2019-01-31T02:06:30.980Z,84.70
2019-01-31T02:08:43.578Z,84.60
2019-01-31T02:10:57.407Z,84.60
2019-01-31T02:13:00.001Z,84.50
2019-01-31T02:14:59.449Z,84.60
2019-01-31T02:16:58.953Z,84.60
2019-01-31T02:18:49.742Z,84.80
2019-01-31T02:20:54.961Z,85.00
2019-01-31T02:23:11.850Z,85.00
2019-01-31T02:24:54.979Z,84.90
2019-01-31T02:26:41.562Z,85.40
2019-01-31T02:28:39.452Z,86.20
2019-01-31T02:31:02.192Z,86.20
2019-01-31T02:33:06.903Z,86.40
2019-01-31T02:34:59.688Z,87.40
2019-01-31T02:37:06.598Z,87.00
2019-01-31T02:39:19.682Z,87.40
2019-01-31T02:41:22.881Z,86.90
2019-01-31T02:43:21.166Z,86.80
2019-01-31T02:44:59.906Z,86.80
2019-01-31T02:47:40.834Z,86.80
2019-01-31T02:49:23.142Z,86.50
2019-01-31T02:51:42.133Z,87.30
2019-01-31T02:53:48.806Z,87.00
2019-01-31T02:55:36.010Z,86.70
2019-01-31T02:57:15.762Z,87.00
2019-01-31T02:59:32.833Z,86.60
2019-01-31T03:01:17.824Z,86.50
2019-01-31T03:03:24.710Z,86.50
2019-01-31T03:05:28.950Z,86.50
2019-01-31T03:07:24.384Z,86.50
2019-01-31T03:09:16.163Z,86.30
2019-01-31T03:11:28.448Z,86.40
2019-01-31T03:13:18.378Z,86.50
2019-01-31T03:14:58.955Z,86.60
2019-01-31T03:17:13.136Z,86.30
2019-01-31T03:18:52.108Z,86.40
2019-01-31T03:20:50.186Z,86.40
2019-01-31T03:23:07.818Z,86.50
2019-01-31T03:24:53.526Z,86.70
2019-01-31T03:27:19.818Z,86.70
2019-01-31T03:29:27.384Z,86.60
2019-01-31T03:31:38.933Z,86.30
2019-01-31T03:33:45.185Z,86.40
2019-01-31T03:35:46.912Z,86.10
2019-01-31T03:37:35.811Z,86.30
2019-01-31T03:39:20.154Z,86.20
2019-01-31T03:41:18.313Z,86.30
2019-01-31T03:43:09.726Z,86.00
2019-01-31T03:45:06.044Z,86.10
2019-01-31T03:47:20.083Z,86.30
2019-01-31T03:49:22.881Z,86.40
2019-01-31T03:51:07.269Z,86.10
2019-01-31T03:53:21.422Z,86.00
2019-01-31T03:55:25.988Z,86.10
2019-01-31T03:57:27.890Z,86.30
2019-01-31T03:59:11.270Z,86.30
2019-01-31T04:01:15.922Z,86.30
2019-01-31T04:03:11.598Z,86.40
2019-01-31T04:05:14.505Z,86.10
2019-01-31T04:06:46.738Z,86.40
2019-01-31T04:08:19.020Z,86.40
2019-01-31T04:09:51.151Z,86.40
2019-01-31T04:11:23.375Z,86.30
2019-01-31T04:12:55.621Z,86.40
2019-01-31T04:14:27.724Z,86.40
2019-01-31T04:15:59.946Z,86.40
2019-01-31T04:17:32.297Z,86.30
2019-01-31T04:19:04.562Z,86.10
2019-01-31T04:20:36.635Z,86.30
2019-01-31T04:22:08.865Z,86.40
2019-01-31T04:23:41.113Z,86.50
2019-01-31T04:25:13.322Z,86.40
2019-01-31T04:26:45.599Z,86.10
2019-01-31T04:28:17.652Z,86.20
2019-01-31T04:29:49.881Z,86.50
2019-01-31T04:31:22.021Z,86.50
2019-01-31T04:32:54.268Z,86.70
2019-01-31T04:34:26.520Z,86.70
2019-01-31T04:35:58.734Z,86.80
2019-01-31T04:37:30.870Z,86.90
2019-01-31T04:39:06.128Z,86.80
2019-01-31T04:40:38.379Z,86.80
2019-01-31T04:42:10.481Z,87.10
2019-01-31T04:43:42.698Z,87.00
2019-01-31T04:45:14.981Z,86.90
2019-01-31T04:46:47.220Z,86.80
2019-01-31T04:48:19.424Z,87.00
2019-01-31T04:49:51.530Z,87.00
2019-01-31T04:51:23.584Z,87.20
2019-01-31T04:52:55.888Z,87.20
2019-01-31T04:54:28.004Z,87.10
2019-01-31T04:56:00.158Z,87.30
2019-01-31T04:57:32.256Z,87.20
2019-01-31T04:59:04.375Z,87.00
2019-01-31T05:00:36.490Z,86.90
2019-01-31T05:02:08.587Z,87.00
2019-01-31T05:03:40.838Z,86.70
2019-01-31T05:05:13.387Z,86.60
2019-01-31T05:06:45.636Z,86.40
2019-01-31T05:08:17.879Z,86.20
2019-01-31T05:09:50.010Z,86.20
2019-01-31T05:11:22.088Z,86.10
2019-01-31T05:12:54.329Z,86.10
2019-01-31T05:14:26.463Z,86.00
2019-01-31T05:15:58.592Z,85.90
2019-01-31T05:17:30.900Z,85.70
2019-01-31T05:19:02.974Z,85.60
2019-01-31T05:20:35.195Z,85.80
2019-01-31T05:22:07.487Z,85.60
2019-01-31T05:23:39.581Z,86.40
2019-01-31T05:25:12.670Z,85.70
2019-01-31T05:26:44.899Z,85.90
2019-01-31T05:28:17.007Z,86.00
2019-01-31T05:29:49.200Z,85.80
2019-01-31T05:31:21.391Z,85.90
2019-01-31T05:32:53.492Z,85.80
2019-01-31T05:34:25.613Z,86.00
2019-01-31T05:35:57.714Z,86.00
2019-01-31T05:37:30.066Z,86.00
2019-01-31T05:39:04.204Z,86.00
2019-01-31T05:40:36.478Z,85.80
2019-01-31T05:42:08.723Z,85.80
2019-01-31T05:43:40.961Z,85.80
2019-01-31T05:45:14.151Z,85.80
2019-01-31T05:46:46.310Z,86.00
2019-01-31T05:48:18.616Z,85.80
2019-01-31T05:49:50.912Z,85.80
2019-01-31T05:51:23.228Z,85.60
2019-01-31T05:52:55.351Z,85.70
2019-01-31T05:54:27.616Z,85.70
2019-01-31T05:55:59.861Z,85.60
2019-01-31T05:57:32.158Z,85.50
2019-01-31T05:59:05.831Z,85.50
2019-01-31T06:00:38.807Z,85.50
2019-01-31T06:02:11.028Z,85.40
2019-01-31T06:03:43.317Z,85.50
2019-01-31T06:05:15.437Z,85.60
2019-01-31T06:06:47.722Z,85.70
2019-01-31T06:08:20.010Z,85.30
2019-01-31T06:09:52.283Z,85.40
2019-01-31T06:11:24.576Z,85.40
2019-01-31T06:12:56.705Z,85.50
2019-01-31T06:14:28.792Z,85.50
2019-01-31T06:16:00.897Z,85.50
2019-01-31T06:17:32.981Z,85.50
2019-01-31T06:19:05.173Z,85.70
2019-01-31T06:20:37.273Z,85.80
2019-01-31T06:22:09.400Z,85.70
2019-01-31T06:23:41.672Z,85.70
2019-01-31T06:25:13.776Z,85.70
2019-01-31T06:26:45.836Z,86.00
2019-01-31T06:28:17.948Z,86.20
2019-01-31T06:29:50.106Z,86.30
2019-01-31T06:31:22.323Z,86.30
2019-01-31T06:32:54.437Z,86.10
2019-01-31T06:34:26.732Z,85.50
2019-01-31T06:35:58.961Z,85.70
2019-01-31T06:37:31.261Z,85.50
2019-01-31T06:39:07.234Z,85.50
2019-01-31T06:40:39.486Z,85.80
2019-01-31T06:42:11.770Z,86.10
2019-01-31T06:43:43.886Z,86.00
2019-01-31T06:45:17.445Z,86.30
2019-01-31T06:46:49.566Z,86.50
2019-01-31T06:48:21.692Z,86.00
2019-01-31T06:49:53.776Z,86.00
2019-01-31T06:51:25.989Z,86.30
2019-01-31T06:52:58.308Z,86.70
2019-01-31T06:54:30.489Z,86.70
2019-01-31T06:56:02.618Z,86.70
2019-01-31T06:57:34.822Z,86.70
2019-01-31T06:59:06.912Z,86.50
2019-01-31T07:00:39.224Z,86.90
2019-01-31T07:02:11.352Z,87.10
2019-01-31T07:03:43.466Z,87.60
2019-01-31T07:05:15.787Z,87.80
2019-01-31T07:06:47.924Z,88.20
2019-01-31T07:08:20.033Z,88.40
2019-01-31T07:09:52.140Z,88.30
2019-01-31T07:11:30.281Z,88.50
2019-01-31T07:12:58.349Z,88.70
2019-01-31T07:14:30.558Z,88.80
2019-01-31T07:16:02.770Z,88.90
2019-01-31T07:17:34.842Z,89.00
2019-01-31T07:19:07.096Z,89.30
2019-01-31T07:20:40.164Z,89.60
2019-01-31T07:22:12.416Z,90.00
2019-01-31T07:23:46.036Z,90.10
2019-01-31T07:25:22.755Z,90.20
2019-01-31T07:26:54.876Z,90.50
2019-01-31T07:28:27.132Z,90.80
2019-01-31T07:29:59.375Z,90.80
2019-01-31T07:31:31.509Z,90.80
2019-01-31T07:33:03.683Z,90.90
2019-01-31T07:34:35.902Z,90.90
2019-01-31T07:36:08.164Z,90.90
2019-01-31T07:37:40.380Z,91.10
2019-01-31T07:39:12.512Z,91.20
2019-01-31T07:40:44.769Z,91.20
2019-01-31T07:42:17.008Z,91.20
2019-01-31T07:43:49.261Z,91.30
2019-01-31T07:45:23.574Z,91.50
2019-01-31T07:46:55.636Z,91.50
2019-01-31T07:48:27.886Z,91.50
2019-01-31T07:50:00.190Z,91.50
2019-01-31T07:51:32.401Z,91.50
2019-01-31T07:53:04.483Z,91.60
2019-01-31T07:54:36.675Z,91.80
2019-01-31T07:56:08.816Z,91.70
2019-01-31T07:57:41.046Z,91.80
2019-01-31T07:59:13.168Z,91.90
2019-01-31T08:00:45.426Z,91.70
2019-01-31T08:02:17.565Z,91.80
2019-01-31T08:03:49.814Z,91.70
2019-01-31T08:05:22.060Z,91.60
2019-01-31T08:06:54.335Z,91.80
2019-01-31T08:08:26.414Z,91.80
2019-01-31T08:09:58.608Z,91.80
2019-01-31T08:11:30.867Z,92.00
2019-01-31T08:13:03.088Z,92.00
2019-01-31T08:14:35.141Z,92.10
2019-01-31T08:16:07.257Z,92.10
2019-01-31T08:17:39.323Z,92.10
2019-01-31T08:19:11.597Z,92.10
2019-01-31T08:20:43.752Z,92.10
2019-01-31T08:22:15.947Z,92.00
2019-01-31T08:23:48.088Z,92.10
2019-01-31T08:25:20.552Z,92.10
2019-01-31T08:26:55.814Z,92.10
2019-01-31T08:28:26.893Z,92.00
2019-01-31T08:29:59.109Z,92.10
2019-01-31T08:31:31.372Z,91.90
2019-01-31T08:33:03.673Z,91.90
2019-01-31T08:34:35.775Z,92.00
2019-01-31T08:36:07.908Z,92.20
2019-01-31T08:37:40.349Z,91.80
2019-01-31T08:39:12.444Z,91.80
2019-01-31T08:40:44.542Z,91.70
2019-01-31T08:42:16.755Z,91.70
2019-01-31T08:43:48.973Z,92.00
2019-01-31T08:45:21.263Z,91.70
2019-01-31T08:46:53.381Z,92.00
2019-01-31T08:48:25.618Z,91.80
2019-01-31T08:49:57.724Z,91.60
2019-01-31T08:51:29.931Z,91.80
2019-01-31T08:53:02.157Z,91.80
2019-01-31T08:54:34.276Z,91.80
2019-01-31T08:56:06.356Z,91.70
2019-01-31T08:57:38.581Z,91.80
2019-01-31T08:59:10.647Z,91.90
2019-01-31T09:00:42.764Z,91.70
2019-01-31T09:02:15.004Z,91.70
2019-01-31T09:03:47.137Z,91.90
2019-01-31T09:05:19.218Z,91.90
2019-01-31T09:06:51.479Z,91.80
2019-01-31T09:08:23.562Z,91.90
2019-01-31T09:09:55.844Z,91.60
2019-01-31T09:11:27.991Z,91.60
2019-01-31T09:13:01.933Z,91.80
2019-01-31T09:14:33.991Z,91.80
2019-01-31T09:16:06.234Z,91.90
2019-01-31T09:17:38.353Z,91.70
2019-01-31T09:19:10.548Z,91.70
2019-01-31T09:21:01.460Z,91.70
2019-01-31T09:23:13.829Z,91.80
2019-01-31T09:25:19.540Z,91.80
2019-01-31T09:27:27.532Z,91.90
2019-01-31T09:29:41.326Z,91.80
2019-01-31T09:31:49.639Z,91.90
2019-01-31T09:33:49.942Z,91.70
2019-01-31T09:35:46.286Z,91.70
2019-01-31T09:37:45.952Z,91.70
2019-01-31T09:39:59.051Z,91.70
2019-01-31T09:41:52.582Z,91.70
2019-01-31T09:44:02.482Z,91.70
2019-01-31T09:45:55.700Z,91.60
2019-01-31T09:47:56.732Z,91.40
2019-01-31T09:50:13.560Z,91.40
2019-01-31T09:52:15.741Z,91.30
2019-01-31T09:54:27.796Z,91.40
2019-01-31T09:56:37.609Z,91.50
2019-01-31T09:58:29.757Z,91.40
2019-01-31T10:00:42.938Z,91.40
2019-01-31T10:03:04.352Z,91.60
2019-01-31T10:04:42.926Z,91.50
2019-01-31T10:06:54.145Z,91.40
2019-01-31T10:09:10.201Z,91.50
2019-01-31T10:11:11.916Z,91.40
2019-01-31T10:13:28.951Z,91.40
2019-01-31T10:15:57.068Z,91.40
2019-01-31T10:17:49.394Z,91.40
2019-01-31T10:19:57.775Z,91.60
2019-01-31T10:21:47.440Z,91.50
2019-01-31T10:23:37.630Z,91.50
2019-01-31T10:25:42.504Z,91.20
2019-01-31T10:27:47.221Z,91.40
2019-01-31T10:29:45.352Z,91.40
2019-01-31T10:32:05.621Z,91.30
2019-01-31T10:34:22.251Z,91.40
2019-01-31T10:36:25.242Z,91.50
2019-01-31T10:38:26.832Z,91.40
2019-01-31T10:40:14.969Z,91.40
2019-01-31T10:42:17.962Z,91.20
2019-01-31T10:44:22.259Z,90.90
2019-01-31T10:46:37.623Z,91.00
2019-01-31T10:48:36.510Z,91.10
2019-01-31T10:50:46.176Z,91.10
2019-01-31T10:53:18.146Z,91.00
2019-01-31T10:55:34.074Z,91.00
2019-01-31T10:57:27.512Z,91.10
2019-01-31T10:59:43.028Z,91.20
2019-01-31T11:02:11.592Z,91.20
2019-01-31T11:03:52.678Z,91.20
2019-01-31T11:06:08.333Z,91.20
2019-01-31T11:08:25.538Z,91.30
2019-01-31T11:10:08.354Z,91.30
2019-01-31T11:12:31.246Z,91.10
2019-01-31T11:14:57.085Z,91.20
2019-01-31T11:16:55.684Z,91.20
2019-01-31T11:19:12.737Z,91.30
2019-01-31T11:21:35.680Z,91.20
2019-01-31T11:23:22.895Z,91.30
2019-01-31T11:26:01.173Z,91.00
2019-01-31T11:27:50.186Z,91.10
2019-01-31T11:30:15.951Z,90.90
2019-01-31T11:32:15.785Z,91.00
2019-01-31T11:34:01.906Z,90.90
2019-01-31T11:35:54.684Z,90.90
2019-01-31T11:38:05.349Z,90.90
2019-01-31T11:40:17.792Z,90.90
2019-01-31T11:42:16.080Z,90.80
2019-01-31T11:44:51.028Z,90.60
2019-01-31T11:47:16.774Z,90.20
2019-01-31T11:49:00.208Z,90.50
2019-01-31T11:50:57.741Z,90.50
2019-01-31T11:53:05.075Z,90.50
2019-01-31T11:55:09.880Z,90.40
2019-01-31T11:57:26.818Z,90.50
2019-01-31T11:59:06.307Z,90.60
2019-01-31T12:00:38.722Z,90.60
2019-01-31T12:02:11.002Z,90.60
2019-01-31T12:03:43.200Z,90.60
2019-01-31T12:05:15.520Z,90.80
2019-01-31T12:06:47.643Z,90.80
2019-01-31T12:08:19.880Z,90.80
2019-01-31T12:09:52.143Z,90.60
2019-01-31T12:11:24.468Z,90.40
2019-01-31T12:12:56.830Z,90.60
2019-01-31T12:14:29.076Z,90.70
2019-01-31T12:16:01.296Z,90.80
2019-01-31T12:17:33.365Z,90.60
2019-01-31T12:19:07.481Z,90.70
2019-01-31T12:20:39.791Z,90.50
2019-01-31T12:22:12.024Z,90.40
2019-01-31T12:23:44.214Z,90.40
2019-01-31T12:25:16.514Z,90.40
2019-01-31T12:26:48.744Z,90.40
2019-01-31T12:28:21.040Z,90.30
2019-01-31T12:29:53.350Z,90.40
2019-01-31T12:31:25.626Z,90.50
2019-01-31T12:32:57.897Z,90.60
2019-01-31T12:34:30.253Z,90.50
2019-01-31T12:36:02.466Z,90.40
2019-01-31T12:37:34.551Z,90.40
2019-01-31T12:39:08.794Z,90.20
2019-01-31T12:40:40.884Z,89.80
2019-01-31T12:42:12.984Z,89.80
2019-01-31T12:43:45.109Z,89.90
2019-01-31T12:45:18.198Z,89.80
2019-01-31T12:46:50.440Z,89.80
2019-01-31T12:48:22.675Z,89.80
2019-01-31T12:49:54.789Z,90.00
2019-01-31T12:51:26.976Z,89.50
2019-01-31T12:52:59.129Z,89.30
2019-01-31T12:54:31.401Z,89.20
2019-01-31T12:56:04.148Z,89.10
2019-01-31T12:57:36.322Z,88.60
2019-01-31T12:59:08.592Z,89.00
2019-01-31T13:00:40.779Z,87.80
2019-01-31T13:02:13.106Z,88.20
2019-01-31T13:03:45.421Z,88.10
2019-01-31T13:05:17.482Z,87.90
2019-01-31T13:06:49.698Z,87.50
2019-01-31T13:08:21.905Z,87.60
2019-01-31T13:09:54.162Z,87.80
2019-01-31T13:11:26.386Z,88.30
2019-01-31T13:12:58.632Z,88.80
2019-01-31T13:14:30.884Z,88.30
2019-01-31T13:16:03.180Z,87.40
2019-01-31T13:17:35.320Z,87.30
2019-01-31T13:19:07.584Z,87.20
2019-01-31T13:20:39.944Z,86.40
2019-01-31T13:22:12.191Z,86.00
2019-01-31T13:23:44.392Z,85.60
2019-01-31T13:25:16.844Z,85.90
2019-01-31T13:26:48.935Z,86.60
2019-01-31T13:28:21.088Z,86.60
2019-01-31T13:29:53.300Z,86.80
2019-01-31T13:31:25.565Z,86.10
2019-01-31T13:32:57.762Z,86.40
2019-01-31T13:34:29.920Z,86.20
2019-01-31T13:36:02.156Z,85.60
2019-01-31T13:37:34.372Z,86.30
2019-01-31T13:39:11.909Z,86.30
2019-01-31T13:40:44.253Z,86.30
2019-01-31T13:42:16.795Z,85.90
2019-01-31T13:43:57.303Z,86.20
2019-01-31T13:45:28.296Z,86.00
2019-01-31T13:47:00.458Z,85.60
2019-01-31T13:48:32.586Z,86.00
2019-01-31T13:50:05.616Z,86.20
2019-01-31T13:51:37.760Z,84.80
2019-01-31T13:53:10.246Z,85.00
2019-01-31T13:54:42.477Z,85.30
2019-01-31T13:56:14.611Z,85.30
2019-01-31T13:57:46.835Z,85.50
2019-01-31T13:59:19.141Z,85.70
2019-01-31T14:00:51.380Z,85.90
2019-01-31T14:02:23.617Z,85.50
2019-01-31T14:03:55.760Z,85.90
2019-01-31T14:05:29.842Z,86.40
2019-01-31T14:07:01.966Z,85.70
2019-01-31T14:08:34.264Z,86.10
2019-01-31T14:10:07.753Z,85.60
2019-01-31T14:11:39.954Z,85.40
2019-01-31T14:13:12.283Z,85.30
2019-01-31T14:14:44.425Z,85.00
2019-01-31T14:16:16.564Z,84.60
2019-01-31T14:17:48.711Z,85.10
2019-01-31T14:19:20.997Z,84.70
2019-01-31T14:20:53.140Z,84.10
2019-01-31T14:22:25.553Z,84.40
2019-01-31T14:23:57.871Z,83.60
2019-01-31T14:25:30.130Z,83.50
2019-01-31T14:27:02.220Z,83.70
2019-01-31T14:28:34.285Z,84.00
2019-01-31T14:30:11.887Z,82.50
2019-01-31T14:31:44.116Z,83.50
2019-01-31T14:33:20.371Z,82.60
2019-01-31T14:34:52.743Z,81.60
2019-01-31T14:36:25.004Z,82.20
2019-01-31T14:37:57.324Z,82.30
2019-01-31T14:39:29.675Z,82.60
2019-01-31T14:41:01.932Z,82.80
2019-01-31T14:42:34.137Z,81.70
2019-01-31T14:44:06.404Z,81.80
2019-01-31T14:45:38.557Z,82.70
2019-01-31T14:47:10.877Z,83.40
2019-01-31T14:48:42.951Z,83.80
2019-01-31T14:50:20.697Z,84.30
2019-01-31T14:51:52.960Z,84.70
2019-01-31T14:53:25.200Z,84.50
2019-01-31T14:54:57.277Z,84.90
2019-01-31T14:56:29.554Z,84.80
2019-01-31T14:58:01.890Z,84.20
2019-01-31T14:59:34.127Z,84.60
2019-01-31T15:01:06.467Z,83.80
2019-01-31T15:02:38.593Z,84.60
2019-01-31T15:04:10.809Z,84.40
2019-01-31T15:05:43.060Z,84.40
2019-01-31T15:07:15.359Z,84.30
2019-01-31T15:08:47.572Z,84.20
2019-01-31T15:10:22.031Z,84.10
2019-01-31T15:11:54.154Z,84.00
2019-01-31T15:13:26.428Z,84.00
2019-01-31T15:14:58.608Z,83.90
2019-01-31T15:16:30.779Z,84.00
2019-01-31T15:18:04.658Z,84.00
2019-01-31T15:19:36.870Z,83.90
2019-01-31T15:21:09.190Z,84.20
2019-01-31T15:22:41.365Z,84.00
2019-01-31T15:24:13.462Z,84.10
2019-01-31T15:25:45.661Z,83.90
2019-01-31T15:27:17.918Z,83.70
2019-01-31T15:28:50.204Z,83.00
2019-01-31T15:30:28.262Z,82.40
2019-01-31T15:32:00.510Z,82.60
2019-01-31T15:33:32.657Z,83.10
2019-01-31T15:35:05.443Z,83.10
2019-01-31T15:36:37.659Z,83.50
2019-01-31T15:38:09.798Z,83.60
2019-01-31T15:39:42.079Z,83.60
2019-01-31T15:41:14.345Z,82.50
2019-01-31T15:42:48.960Z,82.50
2019-01-31T15:44:20.739Z,82.40
2019-01-31T15:45:52.885Z,82.80
2019-01-31T15:47:25.088Z,82.60
2019-01-31T15:48:57.314Z,82.50
2019-01-31T15:50:29.796Z,82.40
2019-01-31T15:52:02.013Z,82.70
2019-01-31T15:53:34.285Z,82.50
2019-01-31T15:55:08.449Z,82.10
2019-01-31T15:56:40.556Z,82.10
2019-01-31T15:58:12.840Z,82.60
2019-01-31T15:59:44.993Z,82.90
2019-01-31T16:01:17.133Z,83.00
2019-01-31T16:02:49.431Z,83.60
2019-01-31T16:04:21.588Z,83.90
2019-01-31T16:05:53.842Z,83.90
2019-01-31T16:07:26.076Z,83.60
2019-01-31T16:08:58.373Z,83.30
2019-01-31T16:10:30.554Z,83.40
2019-01-31T16:12:02.932Z,83.00
2019-01-31T16:13:35.308Z,83.10
2019-01-31T16:15:08.544Z,83.30
2019-01-31T16:16:40.793Z,83.70
2019-01-31T16:18:13.370Z,83.90
2019-01-31T16:19:45.658Z,84.00
2019-01-31T16:21:17.985Z,84.10
2019-01-31T16:22:50.351Z,84.20
2019-01-31T16:24:22.632Z,84.30
2019-01-31T16:25:54.854Z,84.20
2019-01-31T16:27:27.113Z,84.30
2019-01-31T16:28:59.354Z,84.20
2019-01-31T16:30:31.414Z,83.90
2019-01-31T16:32:03.691Z,83.60
2019-01-31T16:33:35.977Z,83.40
2019-01-31T16:35:09.858Z,83.90
2019-01-31T16:36:42.103Z,83.40
2019-01-31T16:38:14.239Z,83.70
2019-01-31T16:39:46.383Z,83.00
2019-01-31T16:41:18.529Z,83.30
2019-01-31T16:42:50.772Z,83.40
2019-01-31T16:44:23.142Z,83.30
2019-01-31T16:45:55.213Z,83.10
2019-01-31T16:47:27.421Z,83.40
2019-01-31T16:48:59.655Z,83.40
2019-01-31T16:50:31.842Z,83.50
2019-01-31T16:52:04.592Z,83.40
2019-01-31T16:53:36.815Z,83.30
2019-01-31T16:55:11.346Z,82.40
2019-01-31T16:56:43.557Z,83.00
2019-01-31T16:58:16.135Z,82.70
2019-01-31T16:59:48.294Z,82.50
2019-01-31T17:01:20.506Z,83.10
2019-01-31T17:02:52.862Z,82.80
2019-01-31T17:04:25.095Z,83.30
2019-01-31T17:05:57.315Z,83.10
2019-01-31T17:07:29.514Z,83.10
2019-01-31T17:09:01.776Z,83.10
2019-01-31T17:10:34.094Z,83.10
2019-01-31T17:12:06.202Z,83.20
2019-01-31T17:13:38.455Z,82.80
2019-01-31T17:15:17.608Z,83.00
2019-01-31T17:16:45.378Z,82.90
2019-01-31T17:18:17.616Z,83.00
2019-01-31T17:19:49.754Z,83.10
2019-01-31T17:21:22.046Z,82.80
2019-01-31T17:22:54.295Z,82.00
2019-01-31T17:24:26.522Z,81.70
2019-01-31T17:25:58.743Z,81.30
2019-01-31T17:27:30.947Z,81.20
2019-01-31T17:29:03.244Z,81.60
2019-01-31T17:30:35.384Z,81.40
2019-01-31T17:32:07.497Z,81.60
2019-01-31T17:33:39.735Z,81.80
2019-01-31T17:35:11.896Z,81.80
2019-01-31T17:36:45.957Z,81.70
2019-01-31T17:38:18.231Z,81.90
2019-01-31T17:39:50.343Z,82.10
2019-01-31T17:41:22.445Z,81.90
2019-01-31T17:42:54.530Z,82.00
2019-01-31T17:44:26.642Z,82.10
2019-01-31T17:45:58.969Z,82.80
2019-01-31T17:47:31.014Z,83.00
2019-01-31T17:49:03.832Z,82.30
2019-01-31T17:50:36.106Z,82.80
2019-01-31T17:52:08.360Z,82.90
2019-01-31T17:53:40.568Z,83.00
2019-01-31T17:55:14.668Z,82.50
2019-01-31T17:56:46.965Z,82.70
2019-01-31T17:58:19.028Z,82.20
2019-01-31T17:59:51.248Z,82.10
2019-01-31T18:01:23.470Z,81.80
2019-01-31T18:02:55.570Z,81.60
2019-01-31T18:04:27.866Z,81.90
2019-01-31T18:06:00.013Z,81.60
2019-01-31T18:07:32.083Z,81.80
2019-01-31T18:09:08.253Z,82.20
2019-01-31T18:10:40.422Z,82.00
2019-01-31T18:12:12.630Z,83.70
2019-01-31T18:13:44.704Z,83.00
2019-01-31T18:15:17.040Z,83.10
2019-01-31T18:16:49.689Z,83.20
2019-01-31T18:18:22.053Z,83.10
2019-01-31T18:19:54.187Z,83.20
2019-01-31T18:21:26.308Z,83.70
2019-01-31T18:22:58.405Z,83.80
2019-01-31T18:24:30.523Z,83.90
2019-01-31T18:26:02.699Z,83.80
2019-01-31T18:27:34.942Z,83.80
2019-01-31T18:29:07.100Z,83.80
2019-01-31T18:30:39.228Z,83.80
2019-01-31T18:32:11.445Z,83.80
2019-01-31T18:33:43.753Z,84.10
2019-01-31T18:35:16.006Z,83.90
2019-01-31T18:36:48.244Z,83.90
2019-01-31T18:38:20.330Z,83.90
2019-01-31T18:39:52.465Z,83.80
2019-01-31T18:41:24.558Z,84.10
2019-01-31T18:42:56.835Z,84.10
2019-01-31T18:44:28.950Z,84.20
2019-01-31T18:46:01.226Z,84.10
2019-01-31T18:47:33.676Z,84.10
2019-01-31T18:49:06.047Z,83.80
2019-01-31T18:50:39.839Z,83.90
2019-01-31T18:52:12.117Z,83.90
2019-01-31T18:53:44.270Z,84.20
2019-01-31T18:55:16.378Z,84.10
2019-01-31T18:56:48.488Z,84.00
2019-01-31T18:58:20.746Z,84.10
2019-01-31T18:59:52.848Z,84.30
2019-01-31T19:01:25.033Z,84.20
2019-01-31T19:02:57.323Z,84.30
2019-01-31T19:04:29.429Z,84.20
2019-01-31T19:06:01.641Z,84.10
2019-01-31T19:07:33.803Z,84.20
2019-01-31T19:09:06.027Z,84.20
2019-01-31T19:10:43.364Z,84.10
2019-01-31T19:12:12.138Z,83.70
2019-01-31T19:13:44.435Z,83.70
2019-01-31T19:15:17.144Z,83.80
2019-01-31T19:16:49.366Z,83.30
2019-01-31T19:18:21.716Z,83.60
2019-01-31T19:19:53.935Z,83.70
2019-01-31T19:21:26.052Z,83.90
2019-01-31T19:22:59.588Z,84.10
2019-01-31T19:24:31.688Z,84.20
2019-01-31T19:26:04.195Z,84.30
2019-01-31T19:27:36.416Z,84.40
2019-01-31T19:29:08.729Z,84.40
2019-01-31T19:30:40.926Z,84.40
2019-01-31T19:32:12.996Z,84.40
2019-01-31T19:33:45.406Z,84.40
2019-01-31T19:35:17.622Z,84.60
2019-01-31T19:36:49.905Z,84.60
2019-01-31T19:38:22.079Z,84.70
2019-01-31T19:39:54.184Z,84.60
2019-01-31T19:41:26.258Z,84.90
2019-01-31T19:42:58.531Z,85.00
2019-01-31T19:44:30.604Z,85.20
2019-01-31T19:46:02.830Z,85.30
2019-01-31T19:47:35.099Z,85.30
2019-01-31T19:49:07.324Z,85.10
2019-01-31T19:50:39.848Z,85.00
2019-01-31T19:52:12.145Z,84.90
2019-01-31T19:53:44.449Z,85.00
2019-01-31T19:55:16.665Z,84.90
2019-01-31T19:56:48.898Z,84.90
2019-01-31T19:58:21.165Z,85.00
2019-01-31T19:59:53.272Z,84.90
2019-01-31T20:01:25.340Z,85.00
2019-01-31T20:02:57.547Z,85.00
2019-01-31T20:04:29.785Z,85.10
2019-01-31T20:06:02.056Z,85.00
2019-01-31T20:07:34.321Z,85.00
2019-01-31T20:09:15.306Z,85.20
2019-01-31T20:10:47.584Z,85.20
2019-01-31T20:12:19.778Z,85.30
2019-01-31T20:13:51.917Z,85.20
2019-01-31T20:15:24.372Z,85.10
2019-01-31T20:16:56.476Z,85.10
2019-01-31T20:18:28.556Z,85.00
2019-01-31T20:20:00.743Z,85.20
2019-01-31T20:21:33.011Z,85.20
2019-01-31T20:23:05.810Z,85.20
2019-01-31T20:24:37.923Z,85.20
2019-01-31T20:26:10.179Z,85.40
2019-01-31T20:27:42.918Z,85.40
2019-01-31T20:29:15.128Z,85.40
2019-01-31T20:30:47.397Z,85.40
2019-01-31T20:32:19.530Z,85.30
2019-01-31T20:33:51.585Z,85.20
2019-01-31T20:35:23.956Z,85.20
2019-01-31T20:36:56.102Z,85.20
2019-01-31T20:38:28.327Z,85.20
2019-01-31T20:40:00.521Z,85.20
2019-01-31T20:41:32.673Z,85.30
2019-01-31T20:43:06.594Z,85.40
2019-01-31T20:44:38.833Z,85.50
2019-01-31T20:46:11.088Z,85.50
2019-01-31T20:47:43.173Z,85.50
2019-01-31T20:49:15.464Z,85.50
2019-01-31T20:50:47.704Z,85.40
2019-01-31T20:52:19.969Z,85.50
2019-01-31T20:53:52.095Z,85.70
2019-01-31T20:55:24.419Z,85.80
2019-01-31T20:56:56.533Z,85.90
2019-01-31T20:58:28.802Z,85.80
2019-01-31T21:00:01.080Z,85.80
2019-01-31T21:01:33.314Z,85.90
2019-01-31T21:03:06.036Z,85.70
2019-01-31T21:04:38.300Z,85.70
2019-01-31T21:06:10.559Z,85.60
2019-01-31T21:07:42.790Z,85.50
2019-01-31T21:09:15.030Z,85.50
2019-01-31T21:10:47.295Z,85.40
2019-01-31T21:12:19.547Z,85.30
2019-01-31T21:13:51.780Z,85.30
2019-01-31T21:15:24.040Z,85.40
2019-01-31T21:16:56.157Z,85.30
2019-01-31T21:18:28.392Z,85.40
2019-01-31T21:20:00.618Z,85.30
2019-01-31T21:21:32.868Z,85.30
2019-01-31T21:23:05.749Z,85.20
2019-01-31T21:24:37.977Z,85.20
2019-01-31T21:26:10.266Z,85.20
2019-01-31T21:27:42.408Z,85.20
2019-01-31T21:29:14.520Z,85.10
2019-01-31T21:30:46.623Z,85.10
2019-01-31T21:32:18.878Z,85.10
2019-01-31T21:33:51.080Z,85.10